sensor_id;sensor_type;location;lat;lon;timestamp;P1;durP1;ratioP1;P2;durP2;ratioP2
58081;SDS011;43876;55.576;38.242;2022-08-19T00:01:41;9.95;;;4.35;;
58081;SDS011;43876;55.576;38.242;2022-08-19T00:04:21;4.50;;;3.97;;
58081;SDS011;43876;55.576;38.242;2022-08-19T00:06:51;5.25;;;4.10;;
58081;SDS011;43876;55.576;38.242;2022-08-19T00:09:19;5.95;;;3.97;;
58081;SDS011;43876;55.576;38.242;2022-08-19T00:11:48;8.07;;;4.60;;
58081;SDS011;43876;55.576;38.242;2022-08-19T00:14:15;6.30;;;3.60;;
58081;SDS011;43876;55.576;38.242;2022-08-19T00:16:44;7.15;;;3.97;;
58081;SDS011;43876;55.576;38.242;2022-08-19T00:19:12;5.75;;;3.90;;
58081;SDS011;43876;55.576;38.242;2022-08-19T00:21:42;7.15;;;3.85;;
58081;SDS011;43876;55.576;38.242;2022-08-19T00:24:10;8.73;;;3.83;;
58081;SDS011;43876;55.576;38.242;2022-08-19T00:26:40;6.50;;;3.95;;
58081;SDS011;43876;55.576;38.242;2022-08-19T00:29:10;5.38;;;3.88;;
58081;SDS011;43876;55.576;38.242;2022-08-19T00:31:40;5.72;;;3.78;;
58081;SDS011;43876;55.576;38.242;2022-08-19T00:34:13;8.20;;;3.80;;
58081;SDS011;43876;55.576;38.242;2022-08-19T00:36:45;10.25;;;3.83;;
58081;SDS011;43876;55.576;38.242;2022-08-19T00:39:39;8.18;;;4.45;;
58081;SDS011;43876;55.576;38.242;2022-08-19T00:42:17;4.93;;;3.40;;
58081;SDS011;43876;55.576;38.242;2022-08-19T00:45:16;5.88;;;3.70;;
58081;SDS011;43876;55.576;38.242;2022-08-19T00:47:46;7.55;;;3.60;;
58081;SDS011;43876;55.576;38.242;2022-08-19T00:50:15;7.18;;;3.90;;
58081;SDS011;43876;55.576;38.242;2022-08-19T00:52:45;7.38;;;4.20;;
58081;SDS011;43876;55.576;38.242;2022-08-19T00:55:16;7.65;;;4.05;;
58081;SDS011;43876;55.576;38.242;2022-08-19T00:57:48;6.10;;;3.45;;
58081;SDS011;43876;55.576;38.242;2022-08-19T01:00:21;6.82;;;3.67;;
58081;SDS011;43876;55.576;38.242;2022-08-19T01:02:49;8.88;;;3.70;;
58081;SDS011;43876;55.576;38.242;2022-08-19T01:05:18;7.68;;;3.50;;
58081;SDS011;43876;55.576;38.242;2022-08-19T01:07:54;7.32;;;3.60;;
58081;SDS011;43876;55.576;38.242;2022-08-19T01:11:05;8.93;;;3.72;;
58081;SDS011;43876;55.576;38.242;2022-08-19T01:14:08;10.05;;;3.60;;
58081;SDS011;43876;55.576;38.242;2022-08-19T01:16:36;4.18;;;3.40;;
58081;SDS011;43876;55.576;38.242;2022-08-19T01:19:10;6.97;;;3.60;;
58081;SDS011;43876;55.576;38.242;2022-08-19T01:24:17;5.90;;;3.15;;
58081;SDS011;43876;55.576;38.242;2022-08-19T01:26:45;11.98;;;3.95;;
58081;SDS011;43876;55.576;38.242;2022-08-19T01:29:14;3.67;;;2.80;;
58081;SDS011;43876;55.576;38.242;2022-08-19T01:31:42;7.78;;;3.30;;
58081;SDS011;43876;55.576;38.242;2022-08-19T01:34:09;5.78;;;3.60;;
58081;SDS011;43876;55.576;38.242;2022-08-19T01:36:43;5.70;;;3.42;;
58081;SDS011;43876;55.576;38.242;2022-08-19T01:39:13;7.78;;;3.75;;
58081;SDS011;43876;55.576;38.242;2022-08-19T01:41:46;5.55;;;3.70;;
58081;SDS011;43876;55.576;38.242;2022-08-19T01:44:14;5.50;;;3.47;;
58081;SDS011;43876;55.576;38.242;2022-08-19T01:46:45;6.85;;;3.38;;
58081;SDS011;43876;55.576;38.242;2022-08-19T01:49:14;4.20;;;3.40;;
58081;SDS011;43876;55.576;38.242;2022-08-19T01:54:11;8.38;;;3.20;;
58081;SDS011;43876;55.576;38.242;2022-08-19T01:56:55;6.40;;;3.50;;
58081;SDS011;43876;55.576;38.242;2022-08-19T01:59:27;6.50;;;3.75;;
58081;SDS011;43876;55.576;38.242;2022-08-19T02:01:55;7.57;;;3.47;;
58081;SDS011;43876;55.576;38.242;2022-08-19T02:04:22;6.60;;;3.20;;
58081;SDS011;43876;55.576;38.242;2022-08-19T02:06:51;7.73;;;3.30;;
58081;SDS011;43876;55.576;38.242;2022-08-19T02:09:19;7.57;;;3.42;;
58081;SDS011;43876;55.576;38.242;2022-08-19T02:11:45;7.97;;;3.40;;
58081;SDS011;43876;55.576;38.242;2022-08-19T02:14:13;6.65;;;3.55;;
58081;SDS011;43876;55.576;38.242;2022-08-19T02:16:40;8.43;;;3.30;;
58081;SDS011;43876;55.576;38.242;2022-08-19T02:19:07;4.15;;;3.63;;
58081;SDS011;43876;55.576;38.242;2022-08-19T02:21:34;7.10;;;3.33;;
58081;SDS011;43876;55.576;38.242;2022-08-19T02:24:02;4.68;;;3.28;;
58081;SDS011;43876;55.576;38.242;2022-08-19T02:26:30;7.32;;;3.42;;
58081;SDS011;43876;55.576;38.242;2022-08-19T02:28:58;6.65;;;3.30;;
58081;SDS011;43876;55.576;38.242;2022-08-19T02:31:27;6.60;;;3.10;;
58081;SDS011;43876;55.576;38.242;2022-08-19T02:33:55;6.93;;;3.67;;
58081;SDS011;43876;55.576;38.242;2022-08-19T02:36:24;7.32;;;3.70;;
58081;SDS011;43876;55.576;38.242;2022-08-19T02:38:52;8.00;;;3.10;;
58081;SDS011;43876;55.576;38.242;2022-08-19T02:41:25;5.30;;;3.03;;
58081;SDS011;43876;55.576;38.242;2022-08-19T02:43:55;5.20;;;3.30;;
58081;SDS011;43876;55.576;38.242;2022-08-19T02:46:44;5.85;;;3.65;;
58081;SDS011;43876;55.576;38.242;2022-08-19T02:49:12;8.27;;;3.20;;
58081;SDS011;43876;55.576;38.242;2022-08-19T02:51:43;7.03;;;3.75;;
58081;SDS011;43876;55.576;38.242;2022-08-19T02:54:11;7.95;;;3.25;;
58081;SDS011;43876;55.576;38.242;2022-08-19T02:56:40;6.25;;;3.30;;
58081;SDS011;43876;55.576;38.242;2022-08-19T02:59:09;5.20;;;3.20;;
58081;SDS011;43876;55.576;38.242;2022-08-19T03:01:38;8.45;;;3.58;;
58081;SDS011;43876;55.576;38.242;2022-08-19T03:04:14;6.60;;;3.38;;
58081;SDS011;43876;55.576;38.242;2022-08-19T03:06:43;5.75;;;3.67;;
58081;SDS011;43876;55.576;38.242;2022-08-19T03:09:12;8.27;;;3.75;;
58081;SDS011;43876;55.576;38.242;2022-08-19T03:11:40;10.52;;;3.50;;
58081;SDS011;43876;55.576;38.242;2022-08-19T03:14:08;8.77;;;3.63;;
58081;SDS011;43876;55.576;38.242;2022-08-19T03:16:45;6.45;;;3.58;;
58081;SDS011;43876;55.576;38.242;2022-08-19T03:19:16;6.95;;;3.72;;
58081;SDS011;43876;55.576;38.242;2022-08-19T03:21:45;6.32;;;3.30;;
58081;SDS011;43876;55.576;38.242;2022-08-19T03:24:13;6.57;;;3.70;;
58081;SDS011;43876;55.576;38.242;2022-08-19T03:26:41;5.53;;;3.30;;
58081;SDS011;43876;55.576;38.242;2022-08-19T03:29:09;6.13;;;3.20;;
58081;SDS011;43876;55.576;38.242;2022-08-19T03:31:39;7.27;;;3.30;;
58081;SDS011;43876;55.576;38.242;2022-08-19T03:34:20;4.47;;;3.30;;
58081;SDS011;43876;55.576;38.242;2022-08-19T03:36:53;4.35;;;3.67;;
58081;SDS011;43876;55.576;38.242;2022-08-19T03:39:22;7.20;;;3.70;;
58081;SDS011;43876;55.576;38.242;2022-08-19T03:41:51;8.13;;;3.70;;
58081;SDS011;43876;55.576;38.242;2022-08-19T03:44:39;11.48;;;3.40;;
58081;SDS011;43876;55.576;38.242;2022-08-19T03:47:08;6.35;;;3.75;;
58081;SDS011;43876;55.576;38.242;2022-08-19T03:49:35;6.75;;;3.35;;
58081;SDS011;43876;55.576;38.242;2022-08-19T03:52:03;4.63;;;3.33;;
58081;SDS011;43876;55.576;38.242;2022-08-19T03:54:34;5.53;;;3.08;;
58081;SDS011;43876;55.576;38.242;2022-08-19T03:57:02;6.00;;;3.38;;
58081;SDS011;43876;55.576;38.242;2022-08-19T03:59:31;8.15;;;3.70;;
58081;SDS011;43876;55.576;38.242;2022-08-19T04:02:01;6.78;;;3.55;;
58081;SDS011;43876;55.576;38.242;2022-08-19T04:04:37;6.72;;;3.17;;
58081;SDS011;43876;55.576;38.242;2022-08-19T04:09:33;7.43;;;4.25;;
58081;SDS011;43876;55.576;38.242;2022-08-19T04:12:00;5.43;;;3.30;;
58081;SDS011;43876;55.576;38.242;2022-08-19T04:14:28;6.75;;;3.50;;
58081;SDS011;43876;55.576;38.242;2022-08-19T04:17:00;6.18;;;3.53;;
58081;SDS011;43876;55.576;38.242;2022-08-19T04:19:32;5.05;;;3.50;;
58081;SDS011;43876;55.576;38.242;2022-08-19T04:22:01;8.15;;;3.95;;
58081;SDS011;43876;55.576;38.242;2022-08-19T04:24:29;6.25;;;3.70;;
58081;SDS011;43876;55.576;38.242;2022-08-19T04:26:58;3.70;;;3.40;;
58081;SDS011;43876;55.576;38.242;2022-08-19T04:29:26;6.50;;;3.42;;
58081;SDS011;43876;55.576;38.242;2022-08-19T04:31:54;5.25;;;3.65;;
58081;SDS011;43876;55.576;38.242;2022-08-19T04:34:23;5.57;;;3.50;;
58081;SDS011;43876;55.576;38.242;2022-08-19T04:39:21;7.15;;;3.63;;
58081;SDS011;43876;55.576;38.242;2022-08-19T04:42:10;6.65;;;3.17;;
58081;SDS011;43876;55.576;38.242;2022-08-19T04:44:56;8.57;;;3.45;;
58081;SDS011;43876;55.576;38.242;2022-08-19T04:47:25;4.30;;;3.35;;
58081;SDS011;43876;55.576;38.242;2022-08-19T04:50:13;8.50;;;3.72;;
58081;SDS011;43876;55.576;38.242;2022-08-19T04:52:44;7.88;;;3.65;;
58081;SDS011;43876;55.576;38.242;2022-08-19T04:55:12;4.80;;;3.65;;
58081;SDS011;43876;55.576;38.242;2022-08-19T04:57:40;7.88;;;3.33;;
58081;SDS011;43876;55.576;38.242;2022-08-19T05:00:10;4.05;;;3.65;;
58081;SDS011;43876;55.576;38.242;2022-08-19T05:02:37;7.28;;;3.50;;
58081;SDS011;43876;55.576;38.242;2022-08-19T05:05:05;7.82;;;3.95;;
58081;SDS011;43876;55.576;38.242;2022-08-19T05:07:33;6.47;;;3.53;;
58081;SDS011;43876;55.576;38.242;2022-08-19T05:10:01;8.32;;;3.97;;
58081;SDS011;43876;55.576;38.242;2022-08-19T05:12:29;5.57;;;3.67;;
58081;SDS011;43876;55.576;38.242;2022-08-19T05:14:57;7.47;;;4.43;;
58081;SDS011;43876;55.576;38.242;2022-08-19T05:17:25;5.22;;;3.60;;
58081;SDS011;43876;55.576;38.242;2022-08-19T05:19:59;8.90;;;4.25;;
58081;SDS011;43876;55.576;38.242;2022-08-19T05:22:45;7.68;;;4.30;;
58081;SDS011;43876;55.576;38.242;2022-08-19T05:25:16;8.77;;;4.10;;
58081;SDS011;43876;55.576;38.242;2022-08-19T05:27:46;7.50;;;4.07;;
58081;SDS011;43876;55.576;38.242;2022-08-19T05:30:14;6.82;;;4.10;;
58081;SDS011;43876;55.576;38.242;2022-08-19T05:32:42;7.15;;;4.50;;
58081;SDS011;43876;55.576;38.242;2022-08-19T05:35:09;4.50;;;4.05;;
58081;SDS011;43876;55.576;38.242;2022-08-19T05:37:38;6.68;;;3.58;;
58081;SDS011;43876;55.576;38.242;2022-08-19T05:40:08;7.32;;;3.60;;
58081;SDS011;43876;55.576;38.242;2022-08-19T05:42:36;5.75;;;3.80;;
58081;SDS011;43876;55.576;38.242;2022-08-19T05:45:04;7.25;;;4.05;;
58081;SDS011;43876;55.576;38.242;2022-08-19T05:47:33;6.55;;;3.72;;
58081;SDS011;43876;55.576;38.242;2022-08-19T05:50:07;6.57;;;4.00;;
58081;SDS011;43876;55.576;38.242;2022-08-19T05:52:36;10.15;;;4.40;;
58081;SDS011;43876;55.576;38.242;2022-08-19T05:55:15;9.85;;;4.60;;
58081;SDS011;43876;55.576;38.242;2022-08-19T05:57:42;6.78;;;4.63;;
58081;SDS011;43876;55.576;38.242;2022-08-19T06:00:10;9.20;;;4.47;;
58081;SDS011;43876;55.576;38.242;2022-08-19T06:02:38;10.30;;;4.72;;
58081;SDS011;43876;55.576;38.242;2022-08-19T06:05:06;9.40;;;5.10;;
58081;SDS011;43876;55.576;38.242;2022-08-19T06:07:36;8.40;;;4.70;;
58081;SDS011;43876;55.576;38.242;2022-08-19T06:10:04;6.65;;;4.55;;
58081;SDS011;43876;55.576;38.242;2022-08-19T06:12:34;9.85;;;4.32;;
58081;SDS011;43876;55.576;38.242;2022-08-19T06:15:11;7.78;;;4.82;;
58081;SDS011;43876;55.576;38.242;2022-08-19T06:17:40;8.50;;;4.40;;
58081;SDS011;43876;55.576;38.242;2022-08-19T06:20:10;6.05;;;4.80;;
58081;SDS011;43876;55.576;38.242;2022-08-19T06:22:40;11.27;;;5.18;;
58081;SDS011;43876;55.576;38.242;2022-08-19T06:25:10;7.15;;;4.40;;
58081;SDS011;43876;55.576;38.242;2022-08-19T06:27:38;9.48;;;4.80;;
58081;SDS011;43876;55.576;38.242;2022-08-19T06:30:26;7.82;;;4.18;;
58081;SDS011;43876;55.576;38.242;2022-08-19T06:32:53;6.78;;;4.40;;
58081;SDS011;43876;55.576;38.242;2022-08-19T06:35:20;6.90;;;3.95;;
58081;SDS011;43876;55.576;38.242;2022-08-19T06:37:47;9.15;;;4.13;;
58081;SDS011;43876;55.576;38.242;2022-08-19T06:40:14;10.07;;;4.47;;
58081;SDS011;43876;55.576;38.242;2022-08-19T06:42:41;11.60;;;4.82;;
58081;SDS011;43876;55.576;38.242;2022-08-19T06:45:21;6.25;;;4.18;;
58081;SDS011;43876;55.576;38.242;2022-08-19T06:47:59;7.65;;;4.25;;
58081;SDS011;43876;55.576;38.242;2022-08-19T06:50:27;6.00;;;3.90;;
58081;SDS011;43876;55.576;38.242;2022-08-19T06:52:53;9.32;;;4.88;;
58081;SDS011;43876;55.576;38.242;2022-08-19T06:55:21;9.65;;;4.35;;
58081;SDS011;43876;55.576;38.242;2022-08-19T06:57:49;8.15;;;4.20;;
58081;SDS011;43876;55.576;38.242;2022-08-19T07:00:20;6.05;;;3.88;;
58081;SDS011;43876;55.576;38.242;2022-08-19T07:02:47;8.13;;;4.20;;
58081;SDS011;43876;55.576;38.242;2022-08-19T07:05:23;8.30;;;4.03;;
58081;SDS011;43876;55.576;38.242;2022-08-19T07:07:50;8.02;;;4.07;;
58081;SDS011;43876;55.576;38.242;2022-08-19T07:10:17;8.80;;;4.18;;
58081;SDS011;43876;55.576;38.242;2022-08-19T07:12:45;4.45;;;3.90;;
58081;SDS011;43876;55.576;38.242;2022-08-19T07:15:13;7.50;;;4.20;;
58081;SDS011;43876;55.576;38.242;2022-08-19T07:17:42;5.38;;;3.53;;
58081;SDS011;43876;55.576;38.242;2022-08-19T07:20:12;4.95;;;3.30;;
58081;SDS011;43876;55.576;38.242;2022-08-19T07:22:39;11.93;;;4.18;;
58081;SDS011;43876;55.576;38.242;2022-08-19T07:25:07;9.55;;;4.43;;
58081;SDS011;43876;55.576;38.242;2022-08-19T07:27:36;5.78;;;4.32;;
58081;SDS011;43876;55.576;38.242;2022-08-19T07:30:06;7.65;;;4.40;;
58081;SDS011;43876;55.576;38.242;2022-08-19T07:32:38;4.70;;;3.90;;
58081;SDS011;43876;55.576;38.242;2022-08-19T07:35:06;5.03;;;4.03;;
58081;SDS011;43876;55.576;38.242;2022-08-19T07:37:35;11.10;;;4.00;;
58081;SDS011;43876;55.576;38.242;2022-08-19T07:40:05;7.28;;;3.75;;
58081;SDS011;43876;55.576;38.242;2022-08-19T07:42:33;9.00;;;4.22;;
58081;SDS011;43876;55.576;38.242;2022-08-19T07:45:00;8.40;;;4.15;;
58081;SDS011;43876;55.576;38.242;2022-08-19T07:47:28;8.98;;;4.10;;
58081;SDS011;43876;55.576;38.242;2022-08-19T07:50:16;7.63;;;4.07;;
58081;SDS011;43876;55.576;38.242;2022-08-19T07:52:46;11.05;;;4.85;;
58081;SDS011;43876;55.576;38.242;2022-08-19T07:55:16;10.23;;;3.75;;
58081;SDS011;43876;55.576;38.242;2022-08-19T07:58:05;8.07;;;4.22;;
58081;SDS011;43876;55.576;38.242;2022-08-19T08:00:32;13.27;;;4.20;;
58081;SDS011;43876;55.576;38.242;2022-08-19T08:02:59;7.70;;;3.92;;
58081;SDS011;43876;55.576;38.242;2022-08-19T08:05:26;6.18;;;4.00;;
58081;SDS011;43876;55.576;38.242;2022-08-19T08:08:12;9.30;;;3.92;;
58081;SDS011;43876;55.576;38.242;2022-08-19T08:10:58;5.55;;;4.05;;
58081;SDS011;43876;55.576;38.242;2022-08-19T08:13:26;5.00;;;4.00;;
58081;SDS011;43876;55.576;38.242;2022-08-19T08:15:55;4.80;;;3.67;;
58081;SDS011;43876;55.576;38.242;2022-08-19T08:18:23;10.77;;;4.63;;
58081;SDS011;43876;55.576;38.242;2022-08-19T08:20:56;12.57;;;4.60;;
58081;SDS011;43876;55.576;38.242;2022-08-19T08:23:24;9.00;;;4.63;;
58081;SDS011;43876;55.576;38.242;2022-08-19T08:25:53;6.50;;;4.07;;
58081;SDS011;43876;55.576;38.242;2022-08-19T08:28:25;4.95;;;3.65;;
58081;SDS011;43876;55.576;38.242;2022-08-19T08:30:55;6.78;;;3.75;;
58081;SDS011;43876;55.576;38.242;2022-08-19T08:33:27;7.97;;;4.00;;
58081;SDS011;43876;55.576;38.242;2022-08-19T08:36:00;15.80;;;4.28;;
58081;SDS011;43876;55.576;38.242;2022-08-19T08:38:30;7.40;;;3.60;;
58081;SDS011;43876;55.576;38.242;2022-08-19T08:44:00;6.88;;;3.70;;
58081;SDS011;43876;55.576;38.242;2022-08-19T08:46:35;6.90;;;3.70;;
58081;SDS011;43876;55.576;38.242;2022-08-19T08:52:27;9.32;;;3.58;;
58081;SDS011;43876;55.576;38.242;2022-08-19T08:55:00;8.23;;;3.38;;
58081;SDS011;43876;55.576;38.242;2022-08-19T09:00:28;7.47;;;3.40;;
58081;SDS011;43876;55.576;38.242;2022-08-19T09:02:59;4.88;;;3.50;;
58081;SDS011;43876;55.576;38.242;2022-08-19T09:05:42;7.78;;;3.65;;
58081;SDS011;43876;55.576;38.242;2022-08-19T09:11:10;9.63;;;3.33;;
58081;SDS011;43876;55.576;38.242;2022-08-19T09:17:16;10.80;;;3.70;;
58081;SDS011;43876;55.576;38.242;2022-08-19T09:19:52;5.57;;;3.60;;
58081;SDS011;43876;55.576;38.242;2022-08-19T09:22:22;9.30;;;3.50;;
58081;SDS011;43876;55.576;38.242;2022-08-19T09:24:52;7.15;;;3.55;;
58081;SDS011;43876;55.576;38.242;2022-08-19T09:27:21;8.85;;;3.40;;
58081;SDS011;43876;55.576;38.242;2022-08-19T09:30:11;6.93;;;3.40;;
58081;SDS011;43876;55.576;38.242;2022-08-19T09:32:41;8.65;;;3.38;;
58081;SDS011;43876;55.576;38.242;2022-08-19T09:35:09;6.13;;;3.00;;
58081;SDS011;43876;55.576;38.242;2022-08-19T09:37:37;5.93;;;3.30;;
58081;SDS011;43876;55.576;38.242;2022-08-19T09:40:06;3.53;;;3.13;;
58081;SDS011;43876;55.576;38.242;2022-08-19T09:42:37;8.50;;;3.33;;
58081;SDS011;43876;55.576;38.242;2022-08-19T09:45:17;8.30;;;3.00;;
58081;SDS011;43876;55.576;38.242;2022-08-19T09:47:50;7.38;;;3.35;;
58081;SDS011;43876;55.576;38.242;2022-08-19T09:50:21;5.80;;;3.20;;
58081;SDS011;43876;55.576;38.242;2022-08-19T09:52:49;4.93;;;3.37;;
58081;SDS011;43876;55.576;38.242;2022-08-19T09:55:24;3.60;;;3.03;;
58081;SDS011;43876;55.576;38.242;2022-08-19T09:57:58;6.05;;;3.40;;
58081;SDS011;43876;55.576;38.242;2022-08-19T10:00:26;8.23;;;3.55;;
58081;SDS011;43876;55.576;38.242;2022-08-19T10:02:54;7.18;;;3.50;;
58081;SDS011;43876;55.576;38.242;2022-08-19T10:05:22;6.15;;;3.70;;
58081;SDS011;43876;55.576;38.242;2022-08-19T10:08:08;6.38;;;3.65;;
58081;SDS011;43876;55.576;38.242;2022-08-19T10:10:42;6.53;;;4.10;;
58081;SDS011;43876;55.576;38.242;2022-08-19T10:13:14;4.47;;;3.80;;
58081;SDS011;43876;55.576;38.242;2022-08-19T10:15:44;7.03;;;4.38;;
58081;SDS011;43876;55.576;38.242;2022-08-19T10:18:14;9.73;;;3.97;;
58081;SDS011;43876;55.576;38.242;2022-08-19T10:20:45;5.05;;;3.80;;
58081;SDS011;43876;55.576;38.242;2022-08-19T10:23:18;5.78;;;3.22;;
58081;SDS011;43876;55.576;38.242;2022-08-19T10:25:47;5.57;;;3.80;;
58081;SDS011;43876;55.576;38.242;2022-08-19T10:28:16;7.82;;;3.78;;
58081;SDS011;43876;55.576;38.242;2022-08-19T10:30:49;3.80;;;3.17;;
58081;SDS011;43876;55.576;38.242;2022-08-19T10:33:16;4.05;;;3.40;;
58081;SDS011;43876;55.576;38.242;2022-08-19T10:36:04;5.90;;;3.38;;
58081;SDS011;43876;55.576;38.242;2022-08-19T10:38:37;8.68;;;3.83;;
58081;SDS011;43876;55.576;38.242;2022-08-19T10:41:21;8.55;;;3.80;;
58081;SDS011;43876;55.576;38.242;2022-08-19T10:43:50;6.32;;;3.40;;
58081;SDS011;43876;55.576;38.242;2022-08-19T10:46:30;9.23;;;3.38;;
58081;SDS011;43876;55.576;38.242;2022-08-19T10:49:02;6.57;;;3.72;;
58081;SDS011;43876;55.576;38.242;2022-08-19T10:51:31;5.75;;;3.58;;
58081;SDS011;43876;55.576;38.242;2022-08-19T10:54:17;7.78;;;3.80;;
58081;SDS011;43876;55.576;38.242;2022-08-19T10:56:59;6.65;;;3.47;;
58081;SDS011;43876;55.576;38.242;2022-08-19T10:59:27;7.13;;;3.60;;
58081;SDS011;43876;55.576;38.242;2022-08-19T11:02:02;4.03;;;3.17;;
58081;SDS011;43876;55.576;38.242;2022-08-19T11:04:31;9.77;;;3.72;;
58081;SDS011;43876;55.576;38.242;2022-08-19T11:07:02;6.20;;;3.47;;
58081;SDS011;43876;55.576;38.242;2022-08-19T11:12:00;9.85;;;3.20;;
58081;SDS011;43876;55.576;38.242;2022-08-19T11:14:30;7.47;;;3.80;;
58081;SDS011;43876;55.576;38.242;2022-08-19T11:17:00;6.28;;;3.83;;
58081;SDS011;43876;55.576;38.242;2022-08-19T11:19:28;7.10;;;3.58;;
58081;SDS011;43876;55.576;38.242;2022-08-19T11:21:55;7.97;;;3.30;;
58081;SDS011;43876;55.576;38.242;2022-08-19T11:24:25;5.03;;;3.40;;
58081;SDS011;43876;55.576;38.242;2022-08-19T11:26:54;6.53;;;3.40;;
58081;SDS011;43876;55.576;38.242;2022-08-19T11:29:27;8.70;;;3.58;;
58081;SDS011;43876;55.576;38.242;2022-08-19T11:31:55;3.78;;;3.42;;
58081;SDS011;43876;55.576;38.242;2022-08-19T11:34:25;7.57;;;3.30;;
58081;SDS011;43876;55.576;38.242;2022-08-19T11:36:55;7.85;;;3.50;;
58081;SDS011;43876;55.576;38.242;2022-08-19T11:39:26;5.55;;;3.42;;
58081;SDS011;43876;55.576;38.242;2022-08-19T11:41:55;5.40;;;3.22;;
58081;SDS011;43876;55.576;38.242;2022-08-19T11:44:22;6.50;;;3.28;;
58081;SDS011;43876;55.576;38.242;2022-08-19T11:46:50;8.95;;;3.55;;
58081;SDS011;43876;55.576;38.242;2022-08-19T11:49:19;7.78;;;3.45;;
58081;SDS011;43876;55.576;38.242;2022-08-19T11:51:47;8.33;;;3.20;;
58081;SDS011;43876;55.576;38.242;2022-08-19T11:54:19;6.72;;;3.10;;
58081;SDS011;43876;55.576;38.242;2022-08-19T11:56:47;11.18;;;3.85;;
58081;SDS011;43876;55.576;38.242;2022-08-19T11:59:15;6.70;;;3.33;;
58081;SDS011;43876;55.576;38.242;2022-08-19T12:01:42;5.15;;;3.58;;
58081;SDS011;43876;55.576;38.242;2022-08-19T12:04:10;6.53;;;3.25;;
58081;SDS011;43876;55.576;38.242;2022-08-19T12:06:38;6.78;;;3.40;;
58081;SDS011;43876;55.576;38.242;2022-08-19T12:09:06;4.77;;;3.30;;
58081;SDS011;43876;55.576;38.242;2022-08-19T12:11:36;9.93;;;3.50;;
58081;SDS011;43876;55.576;38.242;2022-08-19T12:14:05;10.30;;;3.28;;
58081;SDS011;43876;55.576;38.242;2022-08-19T12:16:32;6.88;;;3.63;;
58081;SDS011;43876;55.576;38.242;2022-08-19T12:21:32;7.35;;;3.50;;
58081;SDS011;43876;55.576;38.242;2022-08-19T12:24:01;8.02;;;3.58;;
58081;SDS011;43876;55.576;38.242;2022-08-19T12:26:32;4.57;;;3.58;;
58081;SDS011;43876;55.576;38.242;2022-08-19T12:29:02;6.07;;;3.13;;
58081;SDS011;43876;55.576;38.242;2022-08-19T12:31:33;7.65;;;3.83;;
58081;SDS011;43876;55.576;38.242;2022-08-19T12:34:00;9.00;;;3.58;;
58081;SDS011;43876;55.576;38.242;2022-08-19T12:36:28;7.95;;;3.95;;
58081;SDS011;43876;55.576;38.242;2022-08-19T12:38:57;8.88;;;3.55;;
58081;SDS011;43876;55.576;38.242;2022-08-19T12:41:26;4.22;;;3.30;;
58081;SDS011;43876;55.576;38.242;2022-08-19T12:43:53;9.10;;;3.50;;
58081;SDS011;43876;55.576;38.242;2022-08-19T12:46:21;7.97;;;3.25;;
58081;SDS011;43876;55.576;38.242;2022-08-19T12:48:51;8.05;;;3.45;;
58081;SDS011;43876;55.576;38.242;2022-08-19T12:51:21;7.55;;;3.35;;
58081;SDS011;43876;55.576;38.242;2022-08-19T12:53:49;10.02;;;3.47;;
58081;SDS011;43876;55.576;38.242;2022-08-19T12:56:16;10.32;;;3.53;;
58081;SDS011;43876;55.576;38.242;2022-08-19T12:58:49;5.47;;;3.72;;
58081;SDS011;43876;55.576;38.242;2022-08-19T13:01:18;4.28;;;3.60;;
58081;SDS011;43876;55.576;38.242;2022-08-19T13:03:49;9.80;;;4.10;;
58081;SDS011;43876;55.576;38.242;2022-08-19T13:06:19;6.90;;;3.83;;
58081;SDS011;43876;55.576;38.242;2022-08-19T13:08:47;8.18;;;3.85;;
58081;SDS011;43876;55.576;38.242;2022-08-19T13:11:15;8.73;;;4.00;;
58081;SDS011;43876;55.576;38.242;2022-08-19T13:13:46;7.80;;;3.70;;
58081;SDS011;43876;55.576;38.242;2022-08-19T13:16:15;5.65;;;4.43;;
58081;SDS011;43876;55.576;38.242;2022-08-19T13:18:42;6.10;;;3.92;;
58081;SDS011;43876;55.576;38.242;2022-08-19T13:21:15;8.32;;;4.25;;
58081;SDS011;43876;55.576;38.242;2022-08-19T13:23:44;7.85;;;4.55;;
58081;SDS011;43876;55.576;38.242;2022-08-19T13:26:11;12.57;;;5.15;;
58081;SDS011;43876;55.576;38.242;2022-08-19T13:28:39;10.23;;;5.40;;
58081;SDS011;43876;55.576;38.242;2022-08-19T13:31:28;13.15;;;5.53;;
58081;SDS011;43876;55.576;38.242;2022-08-19T13:34:16;12.27;;;5.65;;
58081;SDS011;43876;55.576;38.242;2022-08-19T13:36:47;12.00;;;6.40;;
58081;SDS011;43876;55.576;38.242;2022-08-19T13:39:14;13.05;;;6.47;;
58081;SDS011;43876;55.576;38.242;2022-08-19T13:41:45;9.27;;;6.88;;
58081;SDS011;43876;55.576;38.242;2022-08-19T13:44:16;12.82;;;7.28;;
58081;SDS011;43876;55.576;38.242;2022-08-19T13:46:48;11.85;;;6.68;;
58081;SDS011;43876;55.576;38.242;2022-08-19T13:49:20;10.23;;;6.47;;
58081;SDS011;43876;55.576;38.242;2022-08-19T13:51:47;12.90;;;7.20;;
58081;SDS011;43876;55.576;38.242;2022-08-19T13:54:14;14.10;;;6.47;;
58081;SDS011;43876;55.576;38.242;2022-08-19T13:56:43;9.32;;;6.03;;
58081;SDS011;43876;55.576;38.242;2022-08-19T13:59:11;7.72;;;4.97;;
58081;SDS011;43876;55.576;38.242;2022-08-19T14:01:39;12.13;;;5.93;;
58081;SDS011;43876;55.576;38.242;2022-08-19T14:04:07;8.68;;;5.50;;
58081;SDS011;43876;55.576;38.242;2022-08-19T14:06:34;8.50;;;4.97;;
58081;SDS011;43876;55.576;38.242;2022-08-19T14:09:02;9.20;;;4.88;;
58081;SDS011;43876;55.576;38.242;2022-08-19T14:11:29;9.90;;;4.85;;
58081;SDS011;43876;55.576;38.242;2022-08-19T14:13:58;13.27;;;4.80;;
58081;SDS011;43876;55.576;38.242;2022-08-19T14:16:26;8.32;;;4.18;;
58081;SDS011;43876;55.576;38.242;2022-08-19T14:18:54;6.80;;;4.30;;
58081;SDS011;43876;55.576;38.242;2022-08-19T14:21:22;12.38;;;4.55;;
58081;SDS011;43876;55.576;38.242;2022-08-19T14:23:51;7.63;;;3.95;;
58081;SDS011;43876;55.576;38.242;2022-08-19T14:26:19;8.35;;;4.13;;
58081;SDS011;43876;55.576;38.242;2022-08-19T14:28:48;5.70;;;3.93;;
58081;SDS011;43876;55.576;38.242;2022-08-19T14:31:16;8.07;;;4.43;;
58081;SDS011;43876;55.576;38.242;2022-08-19T14:33:46;6.75;;;3.80;;
58081;SDS011;43876;55.576;38.242;2022-08-19T14:36:14;5.65;;;4.15;;
58081;SDS011;43876;55.576;38.242;2022-08-19T14:38:41;6.97;;;3.42;;
58081;SDS011;43876;55.576;38.242;2022-08-19T14:41:16;7.63;;;4.18;;
58081;SDS011;43876;55.576;38.242;2022-08-19T14:43:50;10.15;;;3.47;;
58081;SDS011;43876;55.576;38.242;2022-08-19T14:46:22;6.25;;;3.55;;
58081;SDS011;43876;55.576;38.242;2022-08-19T14:48:54;7.70;;;3.80;;
58081;SDS011;43876;55.576;38.242;2022-08-19T14:51:22;8.82;;;3.75;;
58081;SDS011;43876;55.576;38.242;2022-08-19T14:53:50;7.50;;;3.30;;
58081;SDS011;43876;55.576;38.242;2022-08-19T14:56:19;13.43;;;4.07;;
58081;SDS011;43876;55.576;38.242;2022-08-19T14:58:50;12.13;;;3.88;;
58081;SDS011;43876;55.576;38.242;2022-08-19T15:01:19;10.13;;;3.40;;
58081;SDS011;43876;55.576;38.242;2022-08-19T15:03:48;6.18;;;3.35;;
58081;SDS011;43876;55.576;38.242;2022-08-19T15:06:16;7.68;;;3.80;;
58081;SDS011;43876;55.576;38.242;2022-08-19T15:08:43;6.35;;;3.50;;
58081;SDS011;43876;55.576;38.242;2022-08-19T15:11:12;7.38;;;3.65;;
58081;SDS011;43876;55.576;38.242;2022-08-19T15:13:46;8.80;;;3.75;;
58081;SDS011;43876;55.576;38.242;2022-08-19T15:16:14;7.53;;;3.33;;
58081;SDS011;43876;55.576;38.242;2022-08-19T15:18:44;5.22;;;3.55;;
58081;SDS011;43876;55.576;38.242;2022-08-19T15:21:13;4.30;;;3.45;;
58081;SDS011;43876;55.576;38.242;2022-08-19T15:23:54;5.60;;;3.78;;
58081;SDS011;43876;55.576;38.242;2022-08-19T15:26:23;8.45;;;3.80;;